sensor_id;sensor_type;location;lat;lon;timestamp;P1;durP1;ratioP1;P2;durP2;ratioP2
76320;SDS011;65132;52.088;5.402;2023-12-14T00:01:35;12.88;;;5.10;;
76320;SDS011;65132;52.088;5.402;2023-12-14T00:04:03;16.17;;;6.45;;
76320;SDS011;65132;52.088;5.402;2023-12-14T00:06:30;15.23;;;5.00;;
76320;SDS011;65132;52.088;5.402;2023-12-14T00:08:57;14.85;;;6.22;;
76320;SDS011;65132;52.088;5.402;2023-12-14T00:11:23;13.00;;;5.20;;
76320;SDS011;65132;52.088;5.402;2023-12-14T00:13:50;15.05;;;5.95;;
76320;SDS011;65132;52.088;5.402;2023-12-14T00:16:16;14.18;;;4.80;;
76320;SDS011;65132;52.088;5.402;2023-12-14T00:18:43;16.50;;;5.88;;
76320;SDS011;65132;52.088;5.402;2023-12-14T00:21:09;16.75;;;6.57;;
76320;SDS011;65132;52.088;5.402;2023-12-14T00:23:36;15.27;;;6.45;;
76320;SDS011;65132;52.088;5.402;2023-12-14T00:26:02;12.90;;;5.32;;
76320;SDS011;65132;52.088;5.402;2023-12-14T00:28:29;13.68;;;6.20;;
76320;SDS011;65132;52.088;5.402;2023-12-14T00:30:59;16.15;;;6.03;;
76320;SDS011;65132;52.088;5.402;2023-12-14T00:33:26;15.32;;;6.75;;
76320;SDS011;65132;52.088;5.402;2023-12-14T00:35:52;17.58;;;5.65;;
76320;SDS011;65132;52.088;5.402;2023-12-14T00:38:19;14.85;;;6.80;;
76320;SDS011;65132;52.088;5.402;2023-12-14T00:40:45;16.20;;;5.10;;
76320;SDS011;65132;52.088;5.402;2023-12-14T00:43:12;13.75;;;6.10;;
76320;SDS011;65132;52.088;5.402;2023-12-14T00:45:38;13.27;;;6.32;;
76320;SDS011;65132;52.088;5.402;2023-12-14T00:48:05;14.25;;;5.55;;
76320;SDS011;65132;52.088;5.402;2023-12-14T00:50:31;11.98;;;5.47;;
76320;SDS011;65132;52.088;5.402;2023-12-14T00:52:58;13.20;;;4.88;;
76320;SDS011;65132;52.088;5.402;2023-12-14T00:55:24;19.50;;;6.03;;
76320;SDS011;65132;52.088;5.402;2023-12-14T00:57:51;11.38;;;5.28;;
76320;SDS011;65132;52.088;5.402;2023-12-14T01:00:17;13.15;;;5.18;;
76320;SDS011;65132;52.088;5.402;2023-12-14T01:02:44;11.20;;;4.95;;
76320;SDS011;65132;52.088;5.402;2023-12-14T01:05:11;11.05;;;4.25;;
76320;SDS011;65132;52.088;5.402;2023-12-14T01:07:37;9.90;;;4.30;;
76320;SDS011;65132;52.088;5.402;2023-12-14T01:10:04;12.38;;;5.53;;
76320;SDS011;65132;52.088;5.402;2023-12-14T01:12:31;13.27;;;5.32;;
76320;SDS011;65132;52.088;5.402;2023-12-14T01:14:58;11.32;;;4.78;;
76320;SDS011;65132;52.088;5.402;2023-12-14T01:17:24;12.23;;;5.57;;
76320;SDS011;65132;52.088;5.402;2023-12-14T01:19:51;13.93;;;5.88;;
76320;SDS011;65132;52.088;5.402;2023-12-14T01:22:17;12.63;;;5.25;;
76320;SDS011;65132;52.088;5.402;2023-12-14T01:24:44;12.93;;;5.07;;
76320;SDS011;65132;52.088;5.402;2023-12-14T01:27:11;14.15;;;6.18;;
76320;SDS011;65132;52.088;5.402;2023-12-14T01:29:37;14.57;;;5.28;;
76320;SDS011;65132;52.088;5.402;2023-12-14T01:32:04;13.38;;;5.82;;
76320;SDS011;65132;52.088;5.402;2023-12-14T01:34:31;13.93;;;5.65;;
76320;SDS011;65132;52.088;5.402;2023-12-14T01:36:58;14.20;;;6.07;;
76320;SDS011;65132;52.088;5.402;2023-12-14T01:39:24;12.13;;;5.40;;
76320;SDS011;65132;52.088;5.402;2023-12-14T01:41:50;13.30;;;5.30;;
76320;SDS011;65132;52.088;5.402;2023-12-14T01:44:17;11.77;;;4.88;;
76320;SDS011;65132;52.088;5.402;2023-12-14T01:46:43;9.80;;;4.13;;
76320;SDS011;65132;52.088;5.402;2023-12-14T01:49:10;11.30;;;4.68;;
76320;SDS011;65132;52.088;5.402;2023-12-14T01:51:36;11.98;;;5.40;;
76320;SDS011;65132;52.088;5.402;2023-12-14T01:54:03;12.38;;;5.43;;
76320;SDS011;65132;52.088;5.402;2023-12-14T01:56:29;11.73;;;5.25;;
76320;SDS011;65132;52.088;5.402;2023-12-14T01:58:56;12.45;;;5.05;;
76320;SDS011;65132;52.088;5.402;2023-12-14T02:04:02;12.98;;;6.05;;
76320;SDS011;65132;52.088;5.402;2023-12-14T02:06:30;14.02;;;5.57;;
76320;SDS011;65132;52.088;5.402;2023-12-14T02:08:56;13.02;;;4.63;;
76320;SDS011;65132;52.088;5.402;2023-12-14T02:11:23;11.98;;;5.20;;
76320;SDS011;65132;52.088;5.402;2023-12-14T02:13:50;12.05;;;5.18;;
76320;SDS011;65132;52.088;5.402;2023-12-14T02:16:16;10.85;;;5.38;;
76320;SDS011;65132;52.088;5.402;2023-12-14T02:18:43;12.95;;;5.50;;
76320;SDS011;65132;52.088;5.402;2023-12-14T02:21:09;10.77;;;5.30;;
76320;SDS011;65132;52.088;5.402;2023-12-14T02:23:35;12.93;;;5.68;;
76320;SDS011;65132;52.088;5.402;2023-12-14T02:26:09;12.73;;;5.97;;
76320;SDS011;65132;52.088;5.402;2023-12-14T02:28:36;13.65;;;5.60;;
76320;SDS011;65132;52.088;5.402;2023-12-14T02:31:02;12.07;;;5.28;;
76320;SDS011;65132;52.088;5.402;2023-12-14T02:33:29;12.18;;;5.35;;
76320;SDS011;65132;52.088;5.402;2023-12-14T02:35:56;12.05;;;5.07;;
76320;SDS011;65132;52.088;5.402;2023-12-14T02:38:22;8.75;;;4.20;;
76320;SDS011;65132;52.088;5.402;2023-12-14T02:40:49;12.65;;;5.40;;
76320;SDS011;65132;52.088;5.402;2023-12-14T02:43:15;12.60;;;5.40;;
76320;SDS011;65132;52.088;5.402;2023-12-14T02:45:42;11.52;;;5.47;;
76320;SDS011;65132;52.088;5.402;2023-12-14T02:48:08;10.32;;;4.57;;
76320;SDS011;65132;52.088;5.402;2023-12-14T02:50:35;10.65;;;4.38;;
76320;SDS011;65132;52.088;5.402;2023-12-14T02:53:01;12.57;;;5.68;;
76320;SDS011;65132;52.088;5.402;2023-12-14T02:55:28;12.80;;;5.38;;
76320;SDS011;65132;52.088;5.402;2023-12-14T02:57:54;11.95;;;5.55;;
76320;SDS011;65132;52.088;5.402;2023-12-14T03:00:21;12.98;;;6.00;;
76320;SDS011;65132;52.088;5.402;2023-12-14T03:02:48;10.77;;;4.90;;
76320;SDS011;65132;52.088;5.402;2023-12-14T03:05:14;12.75;;;5.85;;
76320;SDS011;65132;52.088;5.402;2023-12-14T03:07:41;10.27;;;5.13;;
76320;SDS011;65132;52.088;5.402;2023-12-14T03:10:07;9.50;;;4.45;;
76320;SDS011;65132;52.088;5.402;2023-12-14T03:12:35;13.15;;;5.53;;
76320;SDS011;65132;52.088;5.402;2023-12-14T03:15:02;10.98;;;5.07;;
76320;SDS011;65132;52.088;5.402;2023-12-14T03:17:28;11.32;;;5.50;;
76320;SDS011;65132;52.088;5.402;2023-12-14T03:19:55;14.38;;;6.53;;
76320;SDS011;65132;52.088;5.402;2023-12-14T03:22:22;13.40;;;5.50;;
76320;SDS011;65132;52.088;5.402;2023-12-14T03:24:48;10.80;;;5.53;;
76320;SDS011;65132;52.088;5.402;2023-12-14T03:27:15;11.23;;;5.30;;
76320;SDS011;65132;52.088;5.402;2023-12-14T03:29:41;10.30;;;4.60;;
76320;SDS011;65132;52.088;5.402;2023-12-14T03:32:08;12.55;;;6.82;;
76320;SDS011;65132;52.088;5.402;2023-12-14T03:34:34;14.50;;;5.30;;
76320;SDS011;65132;52.088;5.402;2023-12-14T03:37:01;13.70;;;4.63;;
76320;SDS011;65132;52.088;5.402;2023-12-14T03:39:27;10.98;;;4.95;;
76320;SDS011;65132;52.088;5.402;2023-12-14T03:41:54;11.52;;;5.20;;
76320;SDS011;65132;52.088;5.402;2023-12-14T03:44:20;12.45;;;5.45;;
76320;SDS011;65132;52.088;5.402;2023-12-14T03:46:46;12.57;;;5.63;;
76320;SDS011;65132;52.088;5.402;2023-12-14T03:49:13;11.63;;;5.53;;
76320;SDS011;65132;52.088;5.402;2023-12-14T03:51:40;12.52;;;5.22;;
76320;SDS011;65132;52.088;5.402;2023-12-14T03:54:06;11.23;;;6.13;;
76320;SDS011;65132;52.088;5.402;2023-12-14T03:56:32;15.13;;;6.60;;
76320;SDS011;65132;52.088;5.402;2023-12-14T03:58:59;13.63;;;5.82;;
76320;SDS011;65132;52.088;5.402;2023-12-14T04:01:25;12.43;;;5.57;;
76320;SDS011;65132;52.088;5.402;2023-12-14T04:03:52;13.15;;;6.50;;
76320;SDS011;65132;52.088;5.402;2023-12-14T04:06:18;14.80;;;5.82;;
76320;SDS011;65132;52.088;5.402;2023-12-14T04:08:44;13.40;;;5.35;;
76320;SDS011;65132;52.088;5.402;2023-12-14T04:11:11;13.13;;;5.85;;
76320;SDS011;65132;52.088;5.402;2023-12-14T04:13:38;13.85;;;6.13;;
76320;SDS011;65132;52.088;5.402;2023-12-14T04:16:05;12.40;;;5.22;;
76320;SDS011;65132;52.088;5.402;2023-12-14T04:18:32;18.88;;;7.28;;
76320;SDS011;65132;52.088;5.402;2023-12-14T04:20:58;17.45;;;5.97;;
76320;SDS011;65132;52.088;5.402;2023-12-14T04:23:25;14.57;;;5.38;;
76320;SDS011;65132;52.088;5.402;2023-12-14T04:25:51;14.38;;;6.05;;
76320;SDS011;65132;52.088;5.402;2023-12-14T04:28:18;12.77;;;6.13;;
76320;SDS011;65132;52.088;5.402;2023-12-14T04:30:44;15.35;;;6.88;;
76320;SDS011;65132;52.088;5.402;2023-12-14T04:33:11;12.77;;;6.00;;
76320;SDS011;65132;52.088;5.402;2023-12-14T04:35:37;14.70;;;5.90;;
76320;SDS011;65132;52.088;5.402;2023-12-14T04:38:04;14.05;;;5.95;;
76320;SDS011;65132;52.088;5.402;2023-12-14T04:40:30;11.80;;;5.13;;
76320;SDS011;65132;52.088;5.402;2023-12-14T04:42:57;12.75;;;5.68;;
76320;SDS011;65132;52.088;5.402;2023-12-14T04:45:23;12.38;;;5.60;;
76320;SDS011;65132;52.088;5.402;2023-12-14T04:47:50;9.00;;;4.75;;
76320;SDS011;65132;52.088;5.402;2023-12-14T04:50:16;11.32;;;4.45;;
76320;SDS011;65132;52.088;5.402;2023-12-14T04:52:43;13.15;;;4.72;;
76320;SDS011;65132;52.088;5.402;2023-12-14T04:55:09;13.95;;;4.70;;
76320;SDS011;65132;52.088;5.402;2023-12-14T04:57:36;12.18;;;5.20;;
76320;SDS011;65132;52.088;5.402;2023-12-14T05:00:03;10.45;;;4.35;;
76320;SDS011;65132;52.088;5.402;2023-12-14T05:02:32;12.13;;;4.50;;
76320;SDS011;65132;52.088;5.402;2023-12-14T05:04:59;11.27;;;3.70;;
76320;SDS011;65132;52.088;5.402;2023-12-14T05:07:25;13.60;;;4.97;;
76320;SDS011;65132;52.088;5.402;2023-12-14T05:09:52;10.07;;;4.75;;
76320;SDS011;65132;52.088;5.402;2023-12-14T05:12:18;9.65;;;4.57;;
76320;SDS011;65132;52.088;5.402;2023-12-14T05:14:45;10.13;;;4.63;;
76320;SDS011;65132;52.088;5.402;2023-12-14T05:17:11;10.57;;;4.03;;
76320;SDS011;65132;52.088;5.402;2023-12-14T05:19:38;8.93;;;3.58;;
76320;SDS011;65132;52.088;5.402;2023-12-14T05:22:04;8.93;;;4.05;;
76320;SDS011;65132;52.088;5.402;2023-12-14T05:24:31;10.73;;;4.25;;
76320;SDS011;65132;52.088;5.402;2023-12-14T05:26:57;10.45;;;4.15;;
76320;SDS011;65132;52.088;5.402;2023-12-14T05:29:24;10.23;;;3.97;;
76320;SDS011;65132;52.088;5.402;2023-12-14T05:31:50;10.07;;;4.28;;
76320;SDS011;65132;52.088;5.402;2023-12-14T05:34:17;7.88;;;3.88;;
76320;SDS011;65132;52.088;5.402;2023-12-14T05:36:43;13.60;;;4.45;;
76320;SDS011;65132;52.088;5.402;2023-12-14T05:39:10;9.77;;;4.00;;
76320;SDS011;65132;52.088;5.402;2023-12-14T05:41:40;8.05;;;4.00;;
76320;SDS011;65132;52.088;5.402;2023-12-14T05:44:10;8.40;;;3.83;;
76320;SDS011;65132;52.088;5.402;2023-12-14T05:46:36;10.40;;;3.88;;
76320;SDS011;65132;52.088;5.402;2023-12-14T05:49:03;9.55;;;3.70;;
76320;SDS011;65132;52.088;5.402;2023-12-14T05:51:30;10.38;;;3.55;;
76320;SDS011;65132;52.088;5.402;2023-12-14T05:53:58;8.68;;;3.65;;
76320;SDS011;65132;52.088;5.402;2023-12-14T05:56:28;8.57;;;3.47;;
76320;SDS011;65132;52.088;5.402;2023-12-14T06:01:22;7.30;;;3.42;;
76320;SDS011;65132;52.088;5.402;2023-12-14T06:03:50;9.43;;;4.03;;
76320;SDS011;65132;52.088;5.402;2023-12-14T06:06:17;8.73;;;3.92;;
76320;SDS011;65132;52.088;5.402;2023-12-14T06:08:45;9.40;;;3.55;;
76320;SDS011;65132;52.088;5.402;2023-12-14T06:11:11;9.35;;;3.30;;
76320;SDS011;65132;52.088;5.402;2023-12-14T06:13:38;9.00;;;3.35;;
76320;SDS011;65132;52.088;5.402;2023-12-14T06:16:05;9.43;;;3.72;;
76320;SDS011;65132;52.088;5.402;2023-12-14T06:18:32;8.05;;;3.47;;
76320;SDS011;65132;52.088;5.402;2023-12-14T06:20:58;8.60;;;3.30;;
76320;SDS011;65132;52.088;5.402;2023-12-14T06:23:25;9.25;;;3.80;;
76320;SDS011;65132;52.088;5.402;2023-12-14T06:25:52;10.63;;;3.75;;
76320;SDS011;65132;52.088;5.402;2023-12-14T06:28:18;10.38;;;3.38;;
76320;SDS011;65132;52.088;5.402;2023-12-14T06:30:45;11.15;;;3.67;;
76320;SDS011;65132;52.088;5.402;2023-12-14T06:33:11;9.50;;;2.80;;
76320;SDS011;65132;52.088;5.402;2023-12-14T06:35:38;8.18;;;3.67;;
76320;SDS011;65132;52.088;5.402;2023-12-14T06:38:04;10.50;;;3.15;;
76320;SDS011;65132;52.088;5.402;2023-12-14T06:40:32;8.20;;;3.20;;
76320;SDS011;65132;52.088;5.402;2023-12-14T06:43:03;7.43;;;3.60;;
76320;SDS011;65132;52.088;5.402;2023-12-14T06:47:58;11.30;;;3.22;;
76320;SDS011;65132;52.088;5.402;2023-12-14T06:50:25;5.85;;;2.35;;
76320;SDS011;65132;52.088;5.402;2023-12-14T06:52:52;7.78;;;3.67;;
76320;SDS011;65132;52.088;5.402;2023-12-14T06:55:18;7.18;;;3.05;;
76320;SDS011;65132;52.088;5.402;2023-12-14T06:57:47;7.35;;;3.20;;
76320;SDS011;65132;52.088;5.402;2023-12-14T07:00:14;9.07;;;3.80;;
76320;SDS011;65132;52.088;5.402;2023-12-14T07:02:40;8.35;;;3.55;;
76320;SDS011;65132;52.088;5.402;2023-12-14T07:05:08;7.18;;;2.78;;
76320;SDS011;65132;52.088;5.402;2023-12-14T07:07:34;7.43;;;3.17;;
76320;SDS011;65132;52.088;5.402;2023-12-14T07:10:03;6.72;;;3.15;;
76320;SDS011;65132;52.088;5.402;2023-12-14T07:12:30;7.28;;;3.72;;
76320;SDS011;65132;52.088;5.402;2023-12-14T07:14:57;6.80;;;3.10;;
76320;SDS011;65132;52.088;5.402;2023-12-14T07:17:23;7.63;;;2.90;;
76320;SDS011;65132;52.088;5.402;2023-12-14T07:19:51;9.02;;;3.75;;
76320;SDS011;65132;52.088;5.402;2023-12-14T07:22:17;8.85;;;3.88;;
76320;SDS011;65132;52.088;5.402;2023-12-14T07:24:44;8.63;;;3.50;;
76320;SDS011;65132;52.088;5.402;2023-12-14T07:27:21;7.07;;;2.70;;
76320;SDS011;65132;52.088;5.402;2023-12-14T07:29:48;9.55;;;3.88;;
76320;SDS011;65132;52.088;5.402;2023-12-14T07:32:15;8.30;;;4.18;;
76320;SDS011;65132;52.088;5.402;2023-12-14T07:34:43;9.68;;;4.20;;
76320;SDS011;65132;52.088;5.402;2023-12-14T07:37:09;7.38;;;3.15;;
76320;SDS011;65132;52.088;5.402;2023-12-14T07:39:36;10.35;;;3.53;;
76320;SDS011;65132;52.088;5.402;2023-12-14T07:42:02;8.60;;;3.28;;
76320;SDS011;65132;52.088;5.402;2023-12-14T07:44:29;6.82;;;3.15;;
76320;SDS011;65132;52.088;5.402;2023-12-14T07:46:56;7.82;;;3.47;;
76320;SDS011;65132;52.088;5.402;2023-12-14T07:49:23;7.35;;;2.83;;
76320;SDS011;65132;52.088;5.402;2023-12-14T07:51:49;9.48;;;3.67;;
76320;SDS011;65132;52.088;5.402;2023-12-14T07:54:16;8.05;;;3.50;;
76320;SDS011;65132;52.088;5.402;2023-12-14T07:56:44;10.18;;;3.15;;
76320;SDS011;65132;52.088;5.402;2023-12-14T07:59:11;9.95;;;3.83;;
76320;SDS011;65132;52.088;5.402;2023-12-14T08:01:37;9.38;;;4.20;;
76320;SDS011;65132;52.088;5.402;2023-12-14T08:04:04;8.68;;;3.92;;
76320;SDS011;65132;52.088;5.402;2023-12-14T08:06:30;8.23;;;3.97;;
76320;SDS011;65132;52.088;5.402;2023-12-14T08:08:57;8.45;;;3.70;;
76320;SDS011;65132;52.088;5.402;2023-12-14T08:11:26;10.07;;;4.95;;
76320;SDS011;65132;52.088;5.402;2023-12-14T08:13:53;9.82;;;4.20;;
76320;SDS011;65132;52.088;5.402;2023-12-14T08:16:20;7.07;;;3.47;;
76320;SDS011;65132;52.088;5.402;2023-12-14T08:18:46;7.50;;;2.92;;
76320;SDS011;65132;52.088;5.402;2023-12-14T08:21:13;8.88;;;3.92;;
76320;SDS011;65132;52.088;5.402;2023-12-14T08:23:39;8.13;;;3.78;;
76320;SDS011;65132;52.088;5.402;2023-12-14T08:26:06;7.32;;;3.33;;
76320;SDS011;65132;52.088;5.402;2023-12-14T08:28:33;9.35;;;3.72;;
76320;SDS011;65132;52.088;5.402;2023-12-14T08:31:00;7.30;;;3.67;;
76320;SDS011;65132;52.088;5.402;2023-12-14T08:33:26;8.70;;;3.25;;
76320;SDS011;65132;52.088;5.402;2023-12-14T08:35:53;7.47;;;3.35;;
76320;SDS011;65132;52.088;5.402;2023-12-14T08:38:19;12.43;;;5.10;;
76320;SDS011;65132;52.088;5.402;2023-12-14T08:40:46;7.65;;;3.25;;
76320;SDS011;65132;52.088;5.402;2023-12-14T08:43:12;11.25;;;3.63;;
76320;SDS011;65132;52.088;5.402;2023-12-14T08:45:39;8.15;;;3.67;;
76320;SDS011;65132;52.088;5.402;2023-12-14T08:48:05;6.80;;;3.33;;
76320;SDS011;65132;52.088;5.402;2023-12-14T08:50:32;8.68;;;3.65;;
76320;SDS011;65132;52.088;5.402;2023-12-14T08:52:59;7.15;;;3.47;;
76320;SDS011;65132;52.088;5.402;2023-12-14T08:55:27;6.57;;;3.15;;
76320;SDS011;65132;52.088;5.402;2023-12-14T08:57:54;7.90;;;3.67;;
76320;SDS011;65132;52.088;5.402;2023-12-14T09:00:20;8.50;;;3.45;;
76320;SDS011;65132;52.088;5.402;2023-12-14T09:02:47;9.63;;;3.58;;
76320;SDS011;65132;52.088;5.402;2023-12-14T09:05:13;7.53;;;3.78;;
76320;SDS011;65132;52.088;5.402;2023-12-14T09:07:42;8.15;;;3.30;;
76320;SDS011;65132;52.088;5.402;2023-12-14T09:10:09;9.07;;;3.47;;
76320;SDS011;65132;52.088;5.402;2023-12-14T09:12:36;8.57;;;3.38;;
76320;SDS011;65132;52.088;5.402;2023-12-14T09:15:03;8.60;;;3.70;;
76320;SDS011;65132;52.088;5.402;2023-12-14T09:17:30;8.10;;;3.15;;
76320;SDS011;65132;52.088;5.402;2023-12-14T09:19:59;8.05;;;4.05;;
76320;SDS011;65132;52.088;5.402;2023-12-14T09:22:26;8.45;;;3.83;;
76320;SDS011;65132;52.088;5.402;2023-12-14T09:24:53;8.40;;;4.30;;
76320;SDS011;65132;52.088;5.402;2023-12-14T09:27:19;7.90;;;3.83;;
76320;SDS011;65132;52.088;5.402;2023-12-14T09:29:46;7.85;;;3.60;;
76320;SDS011;65132;52.088;5.402;2023-12-14T09:32:12;8.57;;;3.90;;
76320;SDS011;65132;52.088;5.402;2023-12-14T09:34:39;7.63;;;3.75;;
76320;SDS011;65132;52.088;5.402;2023-12-14T09:37:06;9.93;;;4.35;;
76320;SDS011;65132;52.088;5.402;2023-12-14T09:39:32;11.50;;;4.18;;
76320;SDS011;65132;52.088;5.402;2023-12-14T09:42:05;8.68;;;4.15;;
76320;SDS011;65132;52.088;5.402;2023-12-14T09:44:33;9.88;;;4.45;;
76320;SDS011;65132;52.088;5.402;2023-12-14T09:47:01;8.70;;;3.33;;
76320;SDS011;65132;52.088;5.402;2023-12-14T09:49:31;9.18;;;3.88;;
76320;SDS011;65132;52.088;5.402;2023-12-14T09:51:58;7.45;;;4.28;;
76320;SDS011;65132;52.088;5.402;2023-12-14T09:54:26;9.15;;;3.78;;
76320;SDS011;65132;52.088;5.402;2023-12-14T09:56:53;8.45;;;3.78;;
76320;SDS011;65132;52.088;5.402;2023-12-14T09:59:20;9.05;;;4.10;;
76320;SDS011;65132;52.088;5.402;2023-12-14T10:01:47;9.60;;;4.00;;
76320;SDS011;65132;52.088;5.402;2023-12-14T10:04:14;9.90;;;3.38;;
76320;SDS011;65132;52.088;5.402;2023-12-14T10:06:42;9.15;;;3.53;;
76320;SDS011;65132;52.088;5.402;2023-12-14T10:09:09;7.80;;;3.70;;
76320;SDS011;65132;52.088;5.402;2023-12-14T10:11:37;8.30;;;2.92;;
76320;SDS011;65132;52.088;5.402;2023-12-14T10:16:50;11.38;;;3.75;;
76320;SDS011;65132;52.088;5.402;2023-12-14T10:19:18;10.23;;;3.88;;
76320;SDS011;65132;52.088;5.402;2023-12-14T10:21:46;7.43;;;3.72;;
76320;SDS011;65132;52.088;5.402;2023-12-14T10:24:13;7.95;;;3.70;;
76320;SDS011;65132;52.088;5.402;2023-12-14T10:26:47;7.78;;;3.67;;
76320;SDS011;65132;52.088;5.402;2023-12-14T10:29:14;9.90;;;3.55;;
76320;SDS011;65132;52.088;5.402;2023-12-14T10:31:42;8.38;;;3.65;;
76320;SDS011;65132;52.088;5.402;2023-12-14T10:34:10;11.50;;;3.15;;
76320;SDS011;65132;52.088;5.402;2023-12-14T10:36:37;8.05;;;3.75;;
76320;SDS011;65132;52.088;5.402;2023-12-14T10:39:03;9.40;;;3.90;;
76320;SDS011;65132;52.088;5.402;2023-12-14T10:41:31;8.88;;;3.60;;
76320;SDS011;65132;52.088;5.402;2023-12-14T10:43:57;7.57;;;4.05;;
76320;SDS011;65132;52.088;5.402;2023-12-14T10:46:48;7.15;;;3.65;;
76320;SDS011;65132;52.088;5.402;2023-12-14T10:49:15;8.23;;;3.35;;
76320;SDS011;65132;52.088;5.402;2023-12-14T10:51:41;7.15;;;2.88;;
76320;SDS011;65132;52.088;5.402;2023-12-14T10:54:08;7.30;;;2.92;;
76320;SDS011;65132;52.088;5.402;2023-12-14T10:56:35;8.32;;;3.50;;
76320;SDS011;65132;52.088;5.402;2023-12-14T10:59:02;8.15;;;3.67;;
76320;SDS011;65132;52.088;5.402;2023-12-14T11:01:29;7.07;;;3.38;;
76320;SDS011;65132;52.088;5.402;2023-12-14T11:03:58;7.15;;;3.58;;
76320;SDS011;65132;52.088;5.402;2023-12-14T11:06:32;7.28;;;3.53;;
76320;SDS011;65132;52.088;5.402;2023-12-14T11:09:04;8.15;;;3.58;;
76320;SDS011;65132;52.088;5.402;2023-12-14T11:11:42;7.82;;;3.25;;
76320;SDS011;65132;52.088;5.402;2023-12-14T11:14:20;6.95;;;3.30;;
76320;SDS011;65132;52.088;5.402;2023-12-14T11:16:50;8.55;;;3.63;;
76320;SDS011;65132;52.088;5.402;2023-12-14T11:24:31;7.93;;;4.10;;
76320;SDS011;65132;52.088;5.402;2023-12-14T11:26:57;7.88;;;4.03;;
76320;SDS011;65132;52.088;5.402;2023-12-14T11:29:24;8.35;;;3.47;;
76320;SDS011;65132;52.088;5.402;2023-12-14T11:31:51;5.78;;;3.05;;
76320;SDS011;65132;52.088;5.402;2023-12-14T11:34:18;5.80;;;2.60;;
76320;SDS011;65132;52.088;5.402;2023-12-14T11:36:44;6.00;;;3.10;;
76320;SDS011;65132;52.088;5.402;2023-12-14T11:39:11;6.75;;;3.60;;
76320;SDS011;65132;52.088;5.402;2023-12-14T11:41:38;7.90;;;3.20;;
76320;SDS011;65132;52.088;5.402;2023-12-14T11:44:04;8.48;;;3.30;;
76320;SDS011;65132;52.088;5.402;2023-12-14T11:46:31;6.63;;;3.60;;
76320;SDS011;65132;52.088;5.402;2023-12-14T11:48:58;5.50;;;3.08;;
76320;SDS011;65132;52.088;5.402;2023-12-14T11:51:24;7.43;;;3.90;;
76320;SDS011;65132;52.088;5.402;2023-12-14T11:53:51;5.18;;;3.70;;
76320;SDS011;65132;52.088;5.402;2023-12-14T11:56:18;5.40;;;3.55;;
76320;SDS011;65132;52.088;5.402;2023-12-14T11:58:45;5.82;;;3.63;;
76320;SDS011;65132;52.088;5.402;2023-12-14T12:01:19;4.90;;;2.60;;
76320;SDS011;65132;52.088;5.402;2023-12-14T12:03:46;7.03;;;3.72;;
76320;SDS011;65132;52.088;5.402;2023-12-14T12:06:26;7.63;;;3.95;;
76320;SDS011;65132;52.088;5.402;2023-12-14T12:08:53;7.30;;;3.75;;
76320;SDS011;65132;52.088;5.402;2023-12-14T12:11:21;6.82;;;3.40;;
76320;SDS011;65132;52.088;5.402;2023-12-14T12:13:55;5.57;;;3.10;;
76320;SDS011;65132;52.088;5.402;2023-12-14T12:16:25;6.22;;;2.75;;
76320;SDS011;65132;52.088;5.402;2023-12-14T12:18:51;6.00;;;2.65;;
76320;SDS011;65132;52.088;5.402;2023-12-14T12:21:18;5.38;;;2.95;;
76320;SDS011;65132;52.088;5.402;2023-12-14T12:23:45;7.20;;;3.13;;
76320;SDS011;65132;52.088;5.402;2023-12-14T12:26:11;9.68;;;5.03;;
76320;SDS011;65132;52.088;5.402;2023-12-14T12:28:38;13.38;;;6.53;;
76320;SDS011;65132;52.088;5.402;2023-12-14T12:31:04;6.85;;;3.50;;
76320;SDS011;65132;52.088;5.402;2023-12-14T12:33:31;11.73;;;7.82;;
76320;SDS011;65132;52.088;5.402;2023-12-14T12:35:57;6.45;;;3.00;;
76320;SDS011;65132;52.088;5.402;2023-12-14T12:38:24;9.43;;;6.57;;
76320;SDS011;65132;52.088;5.402;2023-12-14T12:40:51;8.48;;;6.18;;
76320;SDS011;65132;52.088;5.402;2023-12-14T12:43:18;7.82;;;5.20;;
76320;SDS011;65132;52.088;5.402;2023-12-14T12:45:44;9.93;;;5.10;;
76320;SDS011;65132;52.088;5.402;2023-12-14T12:48:11;10.68;;;8.18;;
76320;SDS011;65132;52.088;5.402;2023-12-14T12:50:37;13.18;;;7.68;;
76320;SDS011;65132;52.088;5.402;2023-12-14T12:53:04;9.68;;;5.35;;
76320;SDS011;65132;52.088;5.402;2023-12-14T12:55:30;10.23;;;5.65;;
76320;SDS011;65132;52.088;5.402;2023-12-14T12:57:57;8.95;;;4.75;;
76320;SDS011;65132;52.088;5.402;2023-12-14T13:00:24;11.82;;;4.18;;
76320;SDS011;65132;52.088;5.402;2023-12-14T13:02:50;6.40;;;3.45;;
76320;SDS011;65132;52.088;5.402;2023-12-14T13:05:17;6.53;;;3.30;;
76320;SDS011;65132;52.088;5.402;2023-12-14T13:07:44;7.00;;;3.15;;
76320;SDS011;65132;52.088;5.402;2023-12-14T13:10:12;4.82;;;2.15;;
76320;SDS011;65132;52.088;5.402;2023-12-14T13:12:54;6.32;;;3.38;;
76320;SDS011;65132;52.088;5.402;2023-12-14T13:15:21;7.93;;;3.00;;
76320;SDS011;65132;52.088;5.402;2023-12-14T13:17:49;5.10;;;2.75;;
76320;SDS011;65132;52.088;5.402;2023-12-14T13:20:16;5.82;;;2.50;;
76320;SDS011;65132;52.088;5.402;2023-12-14T13:22:42;6.47;;;2.95;;
76320;SDS011;65132;52.088;5.402;2023-12-14T13:25:09;6.28;;;2.33;;
76320;SDS011;65132;52.088;5.402;2023-12-14T13:27:35;6.28;;;2.10;;
76320;SDS011;65132;52.088;5.402;2023-12-14T13:30:03;5.32;;;2.20;;
76320;SDS011;65132;52.088;5.402;2023-12-14T13:32:30;6.00;;;2.38;;
76320;SDS011;65132;52.088;5.402;2023-12-14T13:34:56;6.63;;;2.40;;
76320;SDS011;65132;52.088;5.402;2023-12-14T13:37:23;4.97;;;2.45;;
76320;SDS011;65132;52.088;5.402;2023-12-14T13:39:50;5.25;;;2.30;;
76320;SDS011;65132;52.088;5.402;2023-12-14T13:42:17;5.50;;;2.60;;
76320;SDS011;65132;52.088;5.402;2023-12-14T13:44:43;5.65;;;2.70;;
76320;SDS011;65132;52.088;5.402;2023-12-14T13:47:10;8.10;;;2.70;;
76320;SDS011;65132;52.088;5.402;2023-12-14T13:49:36;6.40;;;3.40;;
76320;SDS011;65132;52.088;5.402;2023-12-14T13:52:03;6.55;;;3.22;;
76320;SDS011;65132;52.088;5.402;2023-12-14T13:54:30;4.97;;;2.45;;
76320;SDS011;65132;52.088;5.402;2023-12-14T13:56:56;5.75;;;2.83;;
76320;SDS011;65132;52.088;5.402;2023-12-14T13:59:23;6.20;;;2.58;;
76320;SDS011;65132;52.088;5.402;2023-12-14T14:01:49;7.22;;;2.70;;
76320;SDS011;65132;52.088;5.402;2023-12-14T14:04:18;5.75;;;2.13;;
76320;SDS011;65132;52.088;5.402;2023-12-14T14:06:45;5.78;;;3.17;;
76320;SDS011;65132;52.088;5.402;2023-12-14T14:09:11;7.63;;;2.78;;
76320;SDS011;65132;52.088;5.402;2023-12-14T14:11:38;5.60;;;2.72;;
76320;SDS011;65132;52.088;5.402;2023-12-14T14:14:05;7.10;;;3.20;;
76320;SDS011;65132;52.088;5.402;2023-12-14T14:16:32;8.23;;;4.15;;
76320;SDS011;65132;52.088;5.402;2023-12-14T14:18:58;7.43;;;2.72;;
76320;SDS011;65132;52.088;5.402;2023-12-14T14:21:24;7.85;;;3.67;;
76320;SDS011;65132;52.088;5.402;2023-12-14T14:23:51;9.93;;;3.75;;
76320;SDS011;65132;52.088;5.402;2023-12-14T14:26:17;6.75;;;3.42;;
76320;SDS011;65132;52.088;5.402;2023-12-14T14:28:44;9.75;;;5.80;;
76320;SDS011;65132;52.088;5.402;2023-12-14T14:31:10;9.75;;;4.10;;
76320;SDS011;65132;52.088;5.402;2023-12-14T14:33:37;9.20;;;4.28;;
76320;SDS011;65132;52.088;5.402;2023-12-14T14:36:03;11.63;;;5.30;;
76320;SDS011;65132;52.088;5.402;2023-12-14T14:38:31;11.57;;;4.20;;
76320;SDS011;65132;52.088;5.402;2023-12-14T14:40:58;9.63;;;3.95;;
76320;SDS011;65132;52.088;5.402;2023-12-14T14:43:24;7.93;;;4.03;;
76320;SDS011;65132;52.088;5.402;2023-12-14T14:45:51;8.90;;;4.05;;
76320;SDS011;65132;52.088;5.402;2023-12-14T14:48:17;10.63;;;3.70;;
76320;SDS011;65132;52.088;5.402;2023-12-14T14:50:44;8.93;;;3.58;;
76320;SDS011;65132;52.088;5.402;2023-12-14T14:53:10;9.18;;;4.00;;
76320;SDS011;65132;52.088;5.402;2023-12-14T14:55:37;8.63;;;3.83;;
76320;SDS011;65132;52.088;5.402;2023-12-14T14:58:03;10.07;;;4.60;;